createdAt,value
2022-09-06T00:01:02.859Z,11.56
2022-09-06T00:03:39.960Z,11.51
2022-09-06T00:06:16.191Z,11.49
2022-09-06T00:08:50.489Z,11.48
2022-09-06T00:11:25.351Z,11.45
2022-09-06T00:13:58.929Z,11.44
2022-09-06T00:16:32.918Z,11.46
2022-09-06T00:19:05.956Z,11.46
2022-09-06T00:21:39.049Z,11.41
2022-09-06T00:24:12.516Z,11.37
2022-09-06T00:26:45.914Z,11.37
2022-09-06T00:29:19.345Z,11.37
2022-09-06T00:31:52.222Z,11.37
2022-09-06T00:34:25.263Z,11.37
2022-09-06T00:36:58.401Z,11.37
2022-09-06T00:39:31.677Z,11.37
2022-09-06T00:42:07.540Z,11.36
2022-09-06T00:44:41.578Z,11.35
2022-09-06T00:47:14.629Z,11.35
2022-09-06T00:49:49.309Z,11.34
2022-09-06T00:52:23.511Z,11.33
2022-09-06T00:54:56.483Z,11.31
2022-09-06T00:57:32.470Z,11.28
2022-09-06T01:00:09.386Z,11.24
2022-09-06T01:02:44.352Z,11.19
2022-09-06T01:05:39.169Z,11.17
2022-09-06T01:08:26.058Z,11.16
2022-09-06T01:11:07.577Z,11.15
2022-09-06T01:14:09.683Z,11.11
2022-09-06T01:17:11.580Z,11.11
2022-09-06T01:20:13.450Z,11.08
2022-09-06T01:23:21.268Z,11.06
2022-09-06T01:26:18.918Z,11.00
2022-09-06T01:28:52.524Z,10.95
2022-09-06T01:31:50.703Z,10.90
2022-09-06T01:34:39.765Z,10.85
2022-09-06T01:37:15.711Z,10.77
2022-09-06T01:39:51.403Z,10.73
2022-09-06T01:42:29.698Z,10.69
2022-09-06T01:45:17.407Z,10.67
2022-09-06T01:48:00.755Z,10.65
2022-09-06T01:50:50.528Z,10.64
2022-09-06T01:53:49.638Z,10.61
2022-09-06T01:56:53.245Z,10.59
2022-09-06T02:00:13.023Z,10.55
2022-09-06T02:03:01.792Z,10.52
2022-09-06T02:05:51.141Z,10.48
2022-09-06T02:08:34.806Z,10.43
2022-09-06T02:11:09.618Z,10.39
2022-09-06T02:13:59.407Z,10.34
2022-09-06T02:16:32.941Z,10.34
2022-09-06T02:19:13.807Z,10.33
2022-09-06T02:21:47.802Z,10.33
2022-09-06T02:24:27.740Z,10.32
2022-09-06T02:27:01.134Z,10.30
2022-09-06T02:29:34.601Z,10.28
2022-09-06T02:32:26.289Z,10.26
2022-09-06T02:34:59.823Z,10.22
2022-09-06T02:37:33.390Z,10.19
2022-09-06T02:40:08.354Z,10.16
2022-09-06T02:42:42.120Z,10.13
2022-09-06T02:45:15.524Z,10.06
2022-09-06T02:47:50.504Z,10.01
2022-09-06T02:50:23.421Z,9.97
2022-09-06T02:53:13.662Z,9.93
2022-09-06T02:55:49.036Z,9.89
2022-09-06T02:58:22.369Z,9.86
2022-09-06T03:01:16.652Z,9.87
2022-09-06T03:03:49.718Z,9.85
2022-09-06T03:06:22.820Z,9.78
2022-09-06T03:08:56.317Z,9.75
2022-09-06T03:11:30.520Z,9.73
2022-09-06T03:14:03.943Z,9.70
2022-09-06T03:16:39.912Z,9.63
2022-09-06T03:19:13.075Z,9.60
2022-09-06T03:21:47.420Z,9.57
2022-09-06T03:24:20.016Z,9.57
2022-09-06T03:26:53.020Z,9.57
2022-09-06T03:29:26.251Z,9.60
2022-09-06T03:32:00.582Z,9.60
2022-09-06T03:34:33.222Z,9.56
2022-09-06T03:37:06.246Z,9.56
2022-09-06T03:39:39.746Z,9.53
2022-09-06T03:42:13.034Z,9.55
2022-09-06T03:44:46.126Z,9.57
2022-09-06T03:47:19.849Z,9.59
2022-09-06T03:49:52.945Z,9.63
2022-09-06T03:52:26.177Z,9.60
2022-09-06T03:55:00.627Z,9.62
2022-09-06T03:57:33.921Z,9.61
2022-09-06T04:00:07.955Z,9.63
2022-09-06T04:02:42.808Z,9.65
2022-09-06T04:05:16.808Z,9.66
2022-09-06T04:07:50.070Z,9.67
2022-09-06T04:10:23.125Z,9.67
2022-09-06T04:12:56.880Z,9.69
2022-09-06T04:15:30.052Z,9.75
2022-09-06T04:18:08.535Z,9.85
2022-09-06T04:20:37.540Z,9.95
2022-09-06T04:23:10.457Z,10.08
2022-09-06T04:25:46.005Z,10.18
2022-09-06T04:28:19.767Z,10.25
2022-09-06T04:31:05.196Z,10.34
2022-09-06T04:33:39.145Z,10.41
2022-09-06T04:36:12.633Z,10.49
2022-09-06T04:38:47.531Z,10.60
2022-09-06T04:41:21.685Z,10.77
2022-09-06T04:43:54.931Z,10.98
2022-09-06T04:46:31.838Z,11.18
2022-09-06T04:49:05.885Z,11.33
2022-09-06T04:51:39.947Z,11.49
2022-09-06T04:54:13.254Z,11.64
2022-09-06T04:56:47.460Z,11.82
2022-09-06T04:59:20.614Z,12.03
2022-09-06T05:01:53.825Z,12.18
2022-09-06T05:04:28.770Z,12.32
2022-09-06T05:07:03.127Z,12.34
2022-09-06T05:09:37.190Z,12.27
2022-09-06T05:12:11.018Z,12.29
2022-09-06T05:14:44.509Z,12.38
2022-09-06T05:17:17.701Z,12.61
2022-09-06T05:19:51.437Z,12.66
2022-09-06T05:22:24.629Z,12.63
2022-09-06T05:24:58.882Z,12.57
2022-09-06T05:27:31.468Z,12.56
2022-09-06T05:30:06.020Z,12.54
2022-09-06T05:32:39.824Z,12.55
2022-09-06T05:35:12.948Z,12.60
2022-09-06T05:37:45.915Z,12.64
2022-09-06T05:40:19.519Z,12.63
2022-09-06T05:42:52.631Z,12.70
2022-09-06T05:45:26.436Z,12.70
2022-09-06T05:48:00.311Z,12.69
2022-09-06T05:50:33.646Z,12.75
2022-09-06T05:53:06.752Z,12.77
2022-09-06T05:55:42.850Z,12.84
2022-09-06T05:58:15.908Z,12.89
2022-09-06T06:00:48.987Z,12.93
2022-09-06T06:03:22.026Z,12.98
2022-09-06T06:05:56.447Z,13.00
2022-09-06T06:08:29.987Z,13.00
2022-09-06T06:11:03.399Z,13.01
2022-09-06T06:13:38.504Z,13.09
2022-09-06T06:16:14.503Z,13.13
2022-09-06T06:18:51.953Z,13.23
2022-09-06T06:21:24.934Z,13.35
2022-09-06T06:24:19.820Z,13.50
2022-09-06T06:26:53.922Z,13.61
2022-09-06T06:29:28.133Z,13.69
2022-09-06T06:32:01.289Z,13.79
2022-09-06T06:34:35.360Z,13.87
2022-09-06T06:37:11.310Z,13.96
2022-09-06T06:39:44.311Z,14.06
2022-09-06T06:42:17.488Z,14.21
2022-09-06T06:44:56.467Z,14.35
2022-09-06T06:47:31.252Z,14.50
2022-09-06T06:50:04.386Z,14.66
2022-09-06T06:52:38.044Z,14.82
2022-09-06T06:55:11.755Z,14.89
2022-09-06T06:57:45.512Z,15.01
2022-09-06T07:00:18.934Z,15.14
2022-09-06T07:02:53.268Z,15.21
2022-09-06T07:08:03.728Z,15.40
2022-09-06T07:10:37.275Z,15.48
2022-09-06T07:15:57.885Z,15.66
2022-09-06T07:18:31.739Z,15.78
2022-09-06T07:26:21.225Z,16.10
2022-09-06T07:29:00.923Z,16.17
2022-09-06T07:34:08.947Z,16.32
2022-09-06T07:36:43.271Z,16.44
2022-09-06T07:39:17.477Z,16.56
2022-09-06T07:41:50.089Z,16.64
2022-09-06T07:44:23.415Z,16.69
2022-09-06T07:49:34.750Z,16.82
2022-09-06T07:54:41.175Z,16.83
2022-09-06T07:57:14.253Z,16.79
2022-09-06T07:59:47.844Z,16.77
2022-09-06T08:02:21.126Z,16.75
2022-09-06T08:04:56.576Z,16.75
2022-09-06T08:07:39.034Z,16.73
2022-09-06T08:10:07.138Z,16.72
2022-09-06T08:12:40.440Z,16.78
2022-09-06T08:15:14.013Z,17.28
2022-09-06T08:17:52.597Z,18.00
2022-09-06T08:20:25.983Z,18.61
2022-09-06T08:23:00.286Z,19.22
2022-09-06T08:25:34.597Z,19.58
2022-09-06T08:28:07.162Z,19.73
2022-09-06T08:30:40.259Z,19.90
2022-09-06T08:33:14.072Z,19.98
2022-09-06T08:35:49.679Z,20.24
2022-09-06T08:38:22.858Z,20.38
2022-09-06T08:40:57.033Z,20.43
2022-09-06T08:43:30.185Z,20.35
2022-09-06T08:46:04.953Z,20.27
2022-09-06T08:48:41.525Z,20.22
2022-09-06T08:51:43.493Z,20.31
2022-09-06T08:54:33.995Z,20.75
2022-09-06T08:57:23.362Z,21.34
2022-09-06T09:00:02.601Z,21.89
2022-09-06T09:02:46.032Z,22.33
2022-09-06T09:05:33.667Z,22.53
2022-09-06T09:08:49.867Z,22.78
2022-09-06T09:11:25.750Z,22.96
2022-09-06T09:14:24.712Z,22.84
2022-09-06T09:17:07.754Z,22.57
2022-09-06T09:19:42.330Z,22.14
2022-09-06T09:22:18.347Z,21.70
2022-09-06T09:24:53.553Z,21.44
2022-09-06T09:27:28.317Z,21.10
2022-09-06T09:32:45.334Z,20.70
2022-09-06T09:35:42.827Z,20.52
2022-09-06T09:38:27.721Z,20.48
2022-09-06T09:41:08.108Z,20.70
2022-09-06T09:43:47.657Z,21.18
2022-09-06T09:46:33.272Z,21.68
2022-09-06T09:49:12.316Z,21.89
2022-09-06T09:52:06.578Z,21.90
2022-09-06T09:54:45.074Z,21.69
2022-09-06T09:57:19.898Z,21.36
2022-09-06T09:59:59.597Z,20.96
2022-09-06T10:02:38.482Z,20.49
2022-09-06T10:05:20.685Z,20.05
2022-09-06T10:07:56.946Z,19.54
2022-09-06T10:10:36.625Z,19.10
2022-09-06T10:13:22.091Z,18.80
2022-09-06T10:15:55.843Z,18.58
2022-09-06T10:18:38.032Z,18.31
2022-09-06T10:21:19.676Z,18.12
2022-09-06T10:24:30.427Z,18.01
2022-09-06T10:26:58.697Z,17.97
2022-09-06T10:29:58.650Z,17.89
2022-09-06T10:33:02.252Z,17.84
2022-09-06T10:35:40.155Z,17.71
2022-09-06T10:38:41.015Z,17.53
2022-09-06T10:41:57.946Z,17.45
2022-09-06T10:45:19.853Z,17.31
2022-09-06T10:48:19.103Z,17.15
2022-09-06T10:51:10.967Z,17.01
2022-09-06T10:53:52.279Z,16.96
2022-09-06T10:56:35.785Z,16.96
2022-09-06T11:02:31.238Z,16.94
2022-09-06T11:10:38.851Z,16.97
2022-09-06T11:13:22.076Z,16.98
2022-09-06T11:16:18.771Z,16.97
2022-09-06T11:19:02.975Z,17.00
2022-09-06T11:21:44.460Z,17.05
2022-09-06T11:24:26.766Z,17.08
2022-09-06T11:27:25.457Z,17.15
2022-09-06T11:29:58.952Z,17.20
2022-09-06T11:32:48.328Z,17.18
2022-09-06T11:35:35.248Z,17.16
2022-09-06T11:38:19.392Z,17.15
2022-09-06T11:41:02.309Z,17.10
2022-09-06T11:43:53.470Z,17.02
2022-09-06T11:46:41.186Z,16.92
2022-09-06T11:49:38.192Z,16.91
2022-09-06T11:52:49.394Z,16.91
2022-09-06T11:55:38.250Z,16.92
2022-09-06T11:58:22.154Z,16.95
2022-09-06T12:01:22.315Z,17.11
2022-09-06T12:04:04.160Z,17.28
2022-09-06T12:06:44.167Z,17.41
2022-09-06T12:09:34.078Z,17.45
2022-09-06T12:12:11.449Z,17.54
2022-09-06T12:14:50.518Z,17.67
2022-09-06T12:17:23.845Z,17.58
2022-09-06T12:20:07.812Z,17.56
2022-09-06T12:22:52.673Z,17.67
2022-09-06T12:25:44.144Z,17.77
2022-09-06T12:28:31.107Z,17.90
2022-09-06T12:31:07.526Z,17.99
2022-09-06T12:33:43.507Z,18.12
2022-09-06T12:36:19.591Z,18.25
2022-09-06T12:39:13.783Z,18.37
2022-09-06T12:41:49.876Z,18.39
2022-09-06T12:44:28.257Z,18.34
2022-09-06T12:47:06.131Z,18.24
2022-09-06T12:49:39.859Z,18.17
2022-09-06T12:52:17.862Z,18.24
2022-09-06T12:54:51.784Z,18.21
2022-09-06T12:57:27.966Z,18.11
2022-09-06T13:00:01.973Z,18.08
2022-09-06T13:02:56.891Z,18.06
2022-09-06T13:05:30.124Z,18.05
2022-09-06T13:08:05.238Z,18.02
2022-09-06T13:10:40.208Z,18.05
2022-09-06T13:13:15.349Z,18.05
2022-09-06T13:15:50.082Z,18.04
2022-09-06T13:18:49.329Z,18.04
2022-09-06T13:21:34.207Z,17.94
2022-09-06T13:24:24.908Z,17.85
2022-09-06T13:26:57.889Z,17.79
2022-09-06T13:29:34.396Z,17.68
2022-09-06T13:32:14.718Z,17.60
2022-09-06T13:34:53.990Z,17.50
2022-09-06T13:37:29.845Z,17.39
2022-09-06T13:40:04.849Z,17.28
2022-09-06T13:42:38.202Z,17.20
2022-09-06T13:45:32.344Z,17.12
2022-09-06T13:48:26.173Z,17.05
2022-09-06T13:50:42.018Z,16.99
2022-09-06T13:53:19.130Z,16.93
2022-09-06T13:55:53.132Z,16.84
2022-09-06T13:58:27.673Z,16.73
2022-09-06T14:01:00.171Z,16.64
2022-09-06T14:03:33.875Z,16.59
2022-09-06T14:06:09.081Z,16.49
2022-09-06T14:09:05.826Z,16.41
2022-09-06T14:11:18.530Z,16.40
2022-09-06T14:13:51.621Z,16.37
2022-09-06T14:16:25.220Z,16.38
2022-09-06T14:18:59.336Z,16.37
2022-09-06T14:21:33.177Z,16.42
2022-09-06T14:24:06.961Z,16.48
2022-09-06T14:26:42.983Z,16.54
2022-09-06T14:29:17.182Z,16.57
2022-09-06T14:31:51.577Z,16.59
2022-09-06T14:34:25.962Z,16.60
2022-09-06T14:36:58.857Z,16.60
2022-09-06T14:39:32.438Z,16.56
2022-09-06T14:42:05.740Z,16.53
2022-09-06T14:44:40.808Z,16.52
2022-09-06T14:49:57.921Z,16.44
2022-09-06T14:52:31.348Z,16.38
2022-09-06T14:55:04.819Z,16.30
2022-09-06T14:57:38.171Z,16.27
2022-09-06T15:00:12.739Z,16.25
2022-09-06T15:02:47.510Z,16.23
2022-09-06T15:05:20.468Z,16.18
2022-09-06T15:07:54.801Z,16.16
2022-09-06T15:10:28.416Z,16.14
2022-09-06T15:13:02.679Z,16.12
2022-09-06T15:15:37.033Z,16.12
2022-09-06T15:18:10.933Z,16.13
2022-09-06T15:20:45.146Z,16.16
2022-09-06T15:23:25.804Z,16.11
2022-09-06T15:25:54.381Z,16.09
2022-09-06T15:28:27.365Z,16.06
2022-09-06T15:31:01.904Z,16.05
2022-09-06T15:33:34.944Z,16.04
2022-09-06T15:36:30.311Z,16.00
2022-09-06T15:39:04.324Z,15.95
2022-09-06T15:41:40.379Z,15.89
2022-09-06T15:44:16.852Z,15.83
2022-09-06T15:46:55.282Z,15.75
2022-09-06T15:49:33.965Z,15.69
2022-09-06T15:52:08.171Z,15.61
2022-09-06T15:54:52.742Z,15.54
2022-09-06T15:57:25.744Z,15.49
2022-09-06T15:59:59.393Z,15.44
2022-09-06T16:02:33.393Z,15.39
2022-09-06T16:08:03.141Z,15.29
2022-09-06T16:10:39.935Z,15.24
2022-09-06T16:13:13.289Z,15.18
2022-09-06T16:15:49.577Z,15.14
2022-09-06T16:18:24.247Z,15.10
2022-09-06T16:20:57.651Z,15.05
2022-09-06T16:23:31.140Z,15.01
2022-09-06T16:26:08.134Z,14.96
2022-09-06T16:28:41.349Z,14.96
2022-09-06T16:31:14.401Z,14.92
2022-09-06T16:33:49.258Z,14.89
2022-09-06T16:36:24.806Z,14.84
2022-09-06T16:38:58.179Z,14.76
2022-09-06T16:41:40.896Z,14.70
2022-09-06T16:44:17.526Z,14.69
2022-09-06T16:46:53.560Z,14.68
2022-09-06T16:49:27.592Z,14.64
2022-09-06T16:52:01.097Z,14.60
2022-09-06T16:54:37.593Z,14.53
2022-09-06T16:57:11.375Z,14.48
2022-09-06T16:59:45.534Z,14.43
2022-09-06T17:02:18.879Z,14.38
2022-09-06T17:04:54.166Z,14.33
2022-09-06T17:07:27.979Z,14.27
2022-09-06T17:10:01.895Z,14.20
2022-09-06T17:12:35.691Z,14.14
2022-09-06T17:15:10.858Z,14.10
2022-09-06T17:17:44.487Z,14.04
2022-09-06T17:20:19.321Z,13.97
2022-09-06T17:22:52.951Z,13.93
2022-09-06T17:25:26.267Z,13.88
2022-09-06T17:28:00.488Z,13.85
2022-09-06T17:30:34.785Z,13.79
2022-09-06T17:33:09.604Z,13.73
2022-09-06T17:36:17.935Z,13.69
2022-09-06T17:38:53.359Z,13.65
2022-09-06T17:41:39.547Z,13.58
2022-09-06T17:44:14.897Z,13.53
2022-09-06T17:47:09.216Z,13.50
2022-09-06T17:49:24.890Z,13.47
2022-09-06T17:51:59.836Z,13.44
2022-09-06T17:54:33.786Z,13.42
2022-09-06T17:57:06.993Z,13.39
2022-09-06T17:59:40.939Z,13.36
2022-09-06T18:02:14.361Z,13.33
2022-09-06T18:04:47.687Z,13.33
2022-09-06T18:07:21.399Z,13.30
2022-09-06T18:09:55.707Z,13.30
2022-09-06T18:12:31.206Z,13.27
2022-09-06T18:15:07.040Z,13.26
2022-09-06T18:17:42.165Z,13.24
2022-09-06T18:20:16.304Z,13.23
2022-09-06T18:22:49.669Z,13.20
2022-09-06T18:25:23.486Z,13.21
2022-09-06T18:27:57.095Z,13.21
2022-09-06T18:30:30.703Z,13.21
2022-09-06T18:33:03.829Z,13.22
2022-09-06T18:35:40.152Z,13.23
2022-09-06T18:38:14.446Z,13.24
2022-09-06T18:40:57.855Z,13.28
2022-09-06T18:43:33.201Z,13.34
2022-09-06T18:46:12.936Z,13.41
2022-09-06T18:48:46.426Z,13.47
2022-09-06T18:51:19.624Z,13.50
2022-09-06T18:53:53.201Z,13.50
2022-09-06T18:56:26.874Z,13.53
2022-09-06T18:59:00.373Z,13.57
2022-09-06T19:01:35.293Z,13.58
2022-09-06T19:04:09.055Z,13.60
2022-09-06T19:06:43.667Z,13.61
2022-09-06T19:09:17.815Z,13.63
2022-09-06T19:11:52.409Z,13.65
2022-09-06T19:14:27.099Z,13.65
2022-09-06T19:17:00.419Z,13.65
2022-09-06T19:19:34.514Z,13.64
2022-09-06T19:22:08.052Z,13.63
2022-09-06T19:24:42.871Z,13.61
2022-09-06T19:27:16.205Z,13.59
2022-09-06T19:29:49.879Z,13.55
2022-09-06T19:32:22.826Z,13.53
2022-09-06T19:34:55.694Z,13.49
2022-09-06T19:37:28.833Z,13.49
2022-09-06T19:40:02.007Z,13.45
2022-09-06T19:42:35.334Z,13.40
2022-09-06T19:45:10.060Z,13.32
2022-09-06T19:47:43.483Z,13.28
2022-09-06T19:50:18.027Z,13.24
2022-09-06T19:52:52.084Z,13.19
2022-09-06T19:55:24.990Z,13.15
2022-09-06T19:57:58.770Z,13.10
2022-09-06T20:00:35.316Z,13.06
2022-09-06T20:03:06.703Z,13.01
2022-09-06T20:05:40.997Z,12.96
2022-09-06T20:08:14.418Z,12.92
2022-09-06T20:10:59.253Z,12.88
2022-09-06T20:13:32.986Z,12.83
2022-09-06T20:16:07.386Z,12.77
2022-09-06T20:18:40.501Z,12.72
2022-09-06T20:21:18.217Z,12.66
2022-09-06T20:23:56.785Z,12.61
2022-09-06T20:26:51.878Z,12.56
2022-09-06T20:29:47.098Z,12.51
2022-09-06T20:32:19.992Z,12.48
2022-09-06T20:34:53.626Z,12.46
2022-09-06T20:37:29.622Z,12.46
2022-09-06T20:40:03.341Z,12.43
2022-09-06T20:42:37.455Z,12.38
2022-09-06T20:45:12.613Z,12.36
2022-09-06T20:47:46.509Z,12.34
2022-09-06T20:50:19.526Z,12.31
2022-09-06T20:52:54.647Z,12.29
2022-09-06T20:55:28.085Z,12.28
2022-09-06T20:58:01.047Z,12.28
2022-09-06T21:00:34.107Z,12.27
2022-09-06T21:03:07.632Z,12.25
2022-09-06T21:05:45.068Z,12.20
2022-09-06T21:08:18.927Z,12.16
2022-09-06T21:11:02.305Z,12.13
2022-09-06T21:13:36.468Z,12.08
2022-09-06T21:16:11.181Z,12.03
2022-09-06T21:18:43.957Z,11.98
2022-09-06T21:21:17.089Z,11.93
2022-09-06T21:23:50.040Z,11.89
2022-09-06T21:26:24.047Z,11.86
2022-09-06T21:28:57.205Z,11.81
2022-09-06T21:31:38.810Z,11.78
2022-09-06T21:34:16.900Z,11.75
2022-09-06T21:36:48.329Z,11.72
2022-09-06T21:39:21.241Z,11.68
2022-09-06T21:41:54.133Z,11.64
2022-09-06T21:44:28.607Z,11.61
2022-09-06T21:47:02.374Z,11.57
2022-09-06T21:49:35.344Z,11.54
2022-09-06T21:52:08.922Z,11.51
2022-09-06T21:54:42.783Z,11.49
2022-09-06T21:57:15.850Z,11.46
2022-09-06T21:59:50.090Z,11.42
2022-09-06T22:02:23.958Z,11.39
2022-09-06T22:04:58.000Z,11.37
2022-09-06T22:07:31.142Z,11.37
2022-09-06T22:10:04.643Z,11.36
2022-09-06T22:12:39.151Z,11.32
2022-09-06T22:15:13.754Z,11.33
2022-09-06T22:17:47.999Z,11.32
2022-09-06T22:20:22.329Z,11.33
2022-09-06T22:23:16.089Z,11.32
2022-09-06T22:25:49.207Z,11.29
2022-09-06T22:28:22.520Z,11.26
2022-09-06T22:30:56.142Z,11.24
2022-09-06T22:33:30.642Z,11.23
2022-09-06T22:36:25.638Z,11.22
2022-09-06T22:38:59.325Z,11.18
2022-09-06T22:41:34.349Z,11.15
2022-09-06T22:44:08.041Z,11.14
2022-09-06T22:46:41.579Z,11.10
2022-09-06T22:49:15.105Z,11.08
2022-09-06T22:51:48.135Z,11.07
2022-09-06T22:54:21.322Z,11.08
2022-09-06T22:56:55.635Z,11.10
2022-09-06T22:59:29.898Z,11.09
2022-09-06T23:02:03.500Z,11.06
2022-09-06T23:04:37.925Z,11.06
2022-09-06T23:07:11.545Z,11.04
2022-09-06T23:09:45.212Z,11.04
2022-09-06T23:12:18.644Z,11.03
2022-09-06T23:14:51.883Z,11.03
2022-09-06T23:17:26.908Z,11.03
2022-09-06T23:20:01.078Z,11.05
2022-09-06T23:22:35.455Z,11.06
2022-09-06T23:25:09.833Z,11.08
2022-09-06T23:27:44.004Z,11.06
2022-09-06T23:30:17.884Z,11.05
2022-09-06T23:32:51.255Z,11.04
2022-09-06T23:35:45.170Z,11.03
2022-09-06T23:38:18.781Z,11.00
2022-09-06T23:40:52.078Z,10.97
2022-09-06T23:43:25.195Z,10.94
2022-09-06T23:45:59.894Z,10.95
2022-09-06T23:48:52.915Z,10.95
2022-09-06T23:51:27.363Z,10.95
2022-09-06T23:54:01.050Z,10.90
2022-09-06T23:56:34.470Z,10.89
2022-09-06T23:59:07.766Z,10.85
